sensor_id;sensor_type;location;lat;lon;timestamp;P1;durP1;ratioP1;P2;durP2;ratioP2
70126;SDS011;57491;42.694;23.314;2024-01-11T00:01:00;60.00;;;29.35;;
70126;SDS011;57491;42.694;23.314;2024-01-11T00:03:28;55.43;;;27.20;;
70126;SDS011;57491;42.694;23.314;2024-01-11T00:05:55;61.95;;;26.65;;
70126;SDS011;57491;42.694;23.314;2024-01-11T00:08:22;59.58;;;26.33;;
70126;SDS011;57491;42.694;23.314;2024-01-11T00:10:50;55.13;;;26.23;;
70126;SDS011;57491;42.694;23.314;2024-01-11T00:13:17;57.17;;;25.05;;
70126;SDS011;57491;42.694;23.314;2024-01-11T00:15:44;56.42;;;27.60;;
70126;SDS011;57491;42.694;23.314;2024-01-11T00:18:12;59.70;;;27.75;;
70126;SDS011;57491;42.694;23.314;2024-01-11T00:20:40;55.15;;;26.65;;
70126;SDS011;57491;42.694;23.314;2024-01-11T00:23:08;54.90;;;27.10;;
70126;SDS011;57491;42.694;23.314;2024-01-11T00:25:35;59.50;;;26.80;;
70126;SDS011;57491;42.694;23.314;2024-01-11T00:28:03;48.60;;;26.15;;
70126;SDS011;57491;42.694;23.314;2024-01-11T00:30:30;49.88;;;24.42;;
70126;SDS011;57491;42.694;23.314;2024-01-11T00:32:58;47.40;;;25.00;;
70126;SDS011;57491;42.694;23.314;2024-01-11T00:35:25;62.63;;;27.35;;
70126;SDS011;57491;42.694;23.314;2024-01-11T00:37:54;61.50;;;26.70;;
70126;SDS011;57491;42.694;23.314;2024-01-11T00:40:21;58.15;;;28.30;;
70126;SDS011;57491;42.694;23.314;2024-01-11T00:42:48;54.90;;;28.65;;
70126;SDS011;57491;42.694;23.314;2024-01-11T00:45:15;61.92;;;30.17;;
70126;SDS011;57491;42.694;23.314;2024-01-11T00:47:43;64.82;;;28.58;;
70126;SDS011;57491;42.694;23.314;2024-01-11T00:50:12;62.47;;;29.20;;
70126;SDS011;57491;42.694;23.314;2024-01-11T00:52:39;63.42;;;29.40;;
70126;SDS011;57491;42.694;23.314;2024-01-11T00:55:08;50.60;;;26.27;;
70126;SDS011;57491;42.694;23.314;2024-01-11T00:57:35;47.35;;;24.98;;
70126;SDS011;57491;42.694;23.314;2024-01-11T01:00:03;42.63;;;23.42;;
70126;SDS011;57491;42.694;23.314;2024-01-11T01:02:31;44.20;;;19.33;;
70126;SDS011;57491;42.694;23.314;2024-01-11T01:04:58;38.03;;;19.25;;
70126;SDS011;57491;42.694;23.314;2024-01-11T01:07:26;40.97;;;18.17;;
70126;SDS011;57491;42.694;23.314;2024-01-11T01:09:53;44.35;;;19.20;;
70126;SDS011;57491;42.694;23.314;2024-01-11T01:12:21;37.45;;;18.73;;
70126;SDS011;57491;42.694;23.314;2024-01-11T01:14:50;36.90;;;17.70;;
70126;SDS011;57491;42.694;23.314;2024-01-11T01:17:17;38.78;;;17.33;;
70126;SDS011;57491;42.694;23.314;2024-01-11T01:19:45;39.63;;;18.67;;
70126;SDS011;57491;42.694;23.314;2024-01-11T01:22:12;36.22;;;18.55;;
70126;SDS011;57491;42.694;23.314;2024-01-11T01:24:40;42.00;;;20.63;;
70126;SDS011;57491;42.694;23.314;2024-01-11T01:27:07;52.03;;;22.35;;
70126;SDS011;57491;42.694;23.314;2024-01-11T01:29:36;42.00;;;21.52;;
70126;SDS011;57491;42.694;23.314;2024-01-11T01:32:03;41.35;;;19.00;;
70126;SDS011;57491;42.694;23.314;2024-01-11T01:34:31;41.80;;;21.58;;
70126;SDS011;57491;42.694;23.314;2024-01-11T01:36:58;37.55;;;18.42;;
70126;SDS011;57491;42.694;23.314;2024-01-11T01:39:25;34.30;;;18.30;;
70126;SDS011;57491;42.694;23.314;2024-01-11T01:41:53;41.75;;;17.73;;
70126;SDS011;57491;42.694;23.314;2024-01-11T01:44:20;35.95;;;17.05;;
70126;SDS011;57491;42.694;23.314;2024-01-11T01:46:51;38.63;;;16.93;;
70126;SDS011;57491;42.694;23.314;2024-01-11T01:49:18;34.55;;;16.85;;
70126;SDS011;57491;42.694;23.314;2024-01-11T01:51:48;35.47;;;16.85;;
70126;SDS011;57491;42.694;23.314;2024-01-11T01:54:16;28.00;;;15.10;;
70126;SDS011;57491;42.694;23.314;2024-01-11T01:59:11;27.60;;;14.07;;
70126;SDS011;57491;42.694;23.314;2024-01-11T02:04:08;29.60;;;11.95;;
70126;SDS011;57491;42.694;23.314;2024-01-11T02:06:35;27.42;;;11.65;;
70126;SDS011;57491;42.694;23.314;2024-01-11T02:09:04;25.35;;;9.85;;
70126;SDS011;57491;42.694;23.314;2024-01-11T02:11:33;17.63;;;9.18;;
70126;SDS011;57491;42.694;23.314;2024-01-11T02:14:01;19.63;;;10.48;;
70126;SDS011;57491;42.694;23.314;2024-01-11T02:16:29;24.88;;;10.80;;
70126;SDS011;57491;42.694;23.314;2024-01-11T02:18:56;24.40;;;10.05;;
70126;SDS011;57491;42.694;23.314;2024-01-11T02:21:25;19.83;;;9.95;;
70126;SDS011;57491;42.694;23.314;2024-01-11T02:24:00;23.48;;;11.23;;
70126;SDS011;57491;42.694;23.314;2024-01-11T02:26:30;27.35;;;11.48;;
70126;SDS011;57491;42.694;23.314;2024-01-11T02:28:57;25.90;;;12.75;;
70126;SDS011;57491;42.694;23.314;2024-01-11T02:31:24;24.15;;;11.55;;
70126;SDS011;57491;42.694;23.314;2024-01-11T02:33:52;27.05;;;12.88;;
70126;SDS011;57491;42.694;23.314;2024-01-11T02:36:20;27.00;;;12.68;;
70126;SDS011;57491;42.694;23.314;2024-01-11T02:38:48;24.52;;;13.15;;
70126;SDS011;57491;42.694;23.314;2024-01-11T02:43:46;27.60;;;13.85;;
70126;SDS011;57491;42.694;23.314;2024-01-11T02:46:14;28.83;;;14.45;;
70126;SDS011;57491;42.694;23.314;2024-01-11T02:51:09;33.97;;;14.70;;
70126;SDS011;57491;42.694;23.314;2024-01-11T02:53:36;35.30;;;14.18;;
70126;SDS011;57491;42.694;23.314;2024-01-11T02:56:04;32.28;;;15.65;;
70126;SDS011;57491;42.694;23.314;2024-01-11T02:58:33;35.20;;;17.13;;
70126;SDS011;57491;42.694;23.314;2024-01-11T03:01:00;31.27;;;16.83;;
70126;SDS011;57491;42.694;23.314;2024-01-11T03:03:27;34.00;;;17.63;;
70126;SDS011;57491;42.694;23.314;2024-01-11T03:05:54;35.25;;;17.90;;
70126;SDS011;57491;42.694;23.314;2024-01-11T03:08:22;37.08;;;19.67;;
70126;SDS011;57491;42.694;23.314;2024-01-11T03:10:49;38.25;;;18.83;;
70126;SDS011;57491;42.694;23.314;2024-01-11T03:13:16;37.85;;;17.10;;
70126;SDS011;57491;42.694;23.314;2024-01-11T03:15:45;46.08;;;18.77;;
70126;SDS011;57491;42.694;23.314;2024-01-11T03:18:12;37.53;;;17.23;;
70126;SDS011;57491;42.694;23.314;2024-01-11T03:20:40;36.05;;;16.88;;
70126;SDS011;57491;42.694;23.314;2024-01-11T03:23:07;36.28;;;17.52;;
70126;SDS011;57491;42.694;23.314;2024-01-11T03:25:34;35.30;;;17.42;;
70126;SDS011;57491;42.694;23.314;2024-01-11T03:28:02;32.13;;;16.77;;
70126;SDS011;57491;42.694;23.314;2024-01-11T03:30:29;35.90;;;17.40;;
70126;SDS011;57491;42.694;23.314;2024-01-11T03:32:58;33.88;;;17.52;;
70126;SDS011;57491;42.694;23.314;2024-01-11T03:35:25;39.33;;;18.80;;
70126;SDS011;57491;42.694;23.314;2024-01-11T03:37:53;37.67;;;17.25;;
70126;SDS011;57491;42.694;23.314;2024-01-11T03:40:20;37.00;;;18.67;;
70126;SDS011;57491;42.694;23.314;2024-01-11T03:42:47;37.78;;;18.70;;
70126;SDS011;57491;42.694;23.314;2024-01-11T03:45:17;40.25;;;18.20;;
70126;SDS011;57491;42.694;23.314;2024-01-11T03:47:45;30.35;;;16.02;;
70126;SDS011;57491;42.694;23.314;2024-01-11T03:50:15;37.53;;;16.55;;
70126;SDS011;57491;42.694;23.314;2024-01-11T03:52:43;30.35;;;14.98;;
70126;SDS011;57491;42.694;23.314;2024-01-11T03:55:10;28.15;;;14.95;;
70126;SDS011;57491;42.694;23.314;2024-01-11T03:57:37;37.50;;;17.02;;
70126;SDS011;57491;42.694;23.314;2024-01-11T04:00:05;36.13;;;18.23;;
70126;SDS011;57491;42.694;23.314;2024-01-11T04:02:34;38.60;;;18.10;;
70126;SDS011;57491;42.694;23.314;2024-01-11T04:05:02;39.53;;;17.65;;
70126;SDS011;57491;42.694;23.314;2024-01-11T04:09:58;28.20;;;13.95;;
70126;SDS011;57491;42.694;23.314;2024-01-11T04:12:25;25.67;;;13.63;;
70126;SDS011;57491;42.694;23.314;2024-01-11T04:14:53;29.40;;;13.60;;
70126;SDS011;57491;42.694;23.314;2024-01-11T04:17:20;28.15;;;14.48;;
70126;SDS011;57491;42.694;23.314;2024-01-11T04:19:47;35.67;;;14.20;;
70126;SDS011;57491;42.694;23.314;2024-01-11T04:22:15;25.80;;;12.50;;
70126;SDS011;57491;42.694;23.314;2024-01-11T04:24:43;34.65;;;13.40;;
70126;SDS011;57491;42.694;23.314;2024-01-11T04:27:11;32.70;;;14.15;;
70126;SDS011;57491;42.694;23.314;2024-01-11T04:29:38;34.05;;;14.65;;
70126;SDS011;57491;42.694;23.314;2024-01-11T04:32:05;29.10;;;13.23;;
70126;SDS011;57491;42.694;23.314;2024-01-11T04:34:33;29.67;;;13.93;;
70126;SDS011;57491;42.694;23.314;2024-01-11T04:37:00;30.35;;;14.40;;
70126;SDS011;57491;42.694;23.314;2024-01-11T04:39:27;24.15;;;13.82;;
70126;SDS011;57491;42.694;23.314;2024-01-11T04:41:56;33.47;;;14.75;;
70126;SDS011;57491;42.694;23.314;2024-01-11T04:44:24;27.05;;;13.50;;
70126;SDS011;57491;42.694;23.314;2024-01-11T04:46:51;32.00;;;13.73;;
70126;SDS011;57491;42.694;23.314;2024-01-11T04:49:18;28.30;;;12.93;;
70126;SDS011;57491;42.694;23.314;2024-01-11T04:51:47;26.10;;;13.38;;
70126;SDS011;57491;42.694;23.314;2024-01-11T04:54:14;30.27;;;13.57;;
70126;SDS011;57491;42.694;23.314;2024-01-11T04:56:42;29.92;;;13.60;;
70126;SDS011;57491;42.694;23.314;2024-01-11T04:59:11;33.35;;;14.35;;
70126;SDS011;57491;42.694;23.314;2024-01-11T05:01:39;25.23;;;14.25;;
70126;SDS011;57491;42.694;23.314;2024-01-11T05:04:06;33.53;;;13.85;;
70126;SDS011;57491;42.694;23.314;2024-01-11T05:06:33;31.73;;;16.90;;
70126;SDS011;57491;42.694;23.314;2024-01-11T05:09:01;28.70;;;15.48;;
70126;SDS011;57491;42.694;23.314;2024-01-11T05:11:30;26.98;;;14.50;;
70126;SDS011;57491;42.694;23.314;2024-01-11T05:13:57;32.17;;;14.65;;
70126;SDS011;57491;42.694;23.314;2024-01-11T05:16:26;27.88;;;14.52;;
70126;SDS011;57491;42.694;23.314;2024-01-11T05:18:55;24.48;;;13.80;;
70126;SDS011;57491;42.694;23.314;2024-01-11T05:21:23;34.08;;;15.40;;
70126;SDS011;57491;42.694;23.314;2024-01-11T05:26:18;28.38;;;12.35;;
70126;SDS011;57491;42.694;23.314;2024-01-11T05:28:46;23.95;;;11.90;;
70126;SDS011;57491;42.694;23.314;2024-01-11T05:31:14;27.42;;;13.85;;
70126;SDS011;57491;42.694;23.314;2024-01-11T05:33:43;26.75;;;13.70;;
70126;SDS011;57491;42.694;23.314;2024-01-11T05:36:11;27.92;;;13.50;;
70126;SDS011;57491;42.694;23.314;2024-01-11T05:38:38;26.70;;;13.93;;
70126;SDS011;57491;42.694;23.314;2024-01-11T05:43:33;23.33;;;14.13;;
70126;SDS011;57491;42.694;23.314;2024-01-11T05:46:01;23.70;;;13.23;;
70126;SDS011;57491;42.694;23.314;2024-01-11T05:48:28;32.25;;;13.00;;
70126;SDS011;57491;42.694;23.314;2024-01-11T05:50:57;31.88;;;13.60;;
70126;SDS011;57491;42.694;23.314;2024-01-11T05:53:25;33.25;;;15.48;;
70126;SDS011;57491;42.694;23.314;2024-01-11T05:55:53;22.83;;;13.32;;
70126;SDS011;57491;42.694;23.314;2024-01-11T05:58:20;21.13;;;13.30;;
70126;SDS011;57491;42.694;23.314;2024-01-11T06:00:47;29.30;;;14.27;;
70126;SDS011;57491;42.694;23.314;2024-01-11T06:03:14;28.40;;;13.88;;
70126;SDS011;57491;42.694;23.314;2024-01-11T06:05:42;23.23;;;12.00;;
70126;SDS011;57491;42.694;23.314;2024-01-11T06:08:10;21.40;;;12.05;;
70126;SDS011;57491;42.694;23.314;2024-01-11T06:10:38;27.83;;;13.07;;
70126;SDS011;57491;42.694;23.314;2024-01-11T06:13:05;24.50;;;11.02;;
70126;SDS011;57491;42.694;23.314;2024-01-11T06:15:34;21.85;;;12.38;;
70126;SDS011;57491;42.694;23.314;2024-01-11T06:18:01;28.33;;;13.23;;
70126;SDS011;57491;42.694;23.314;2024-01-11T06:20:30;23.70;;;13.10;;
70126;SDS011;57491;42.694;23.314;2024-01-11T06:22:57;24.77;;;11.98;;
70126;SDS011;57491;42.694;23.314;2024-01-11T06:25:26;24.30;;;12.55;;
70126;SDS011;57491;42.694;23.314;2024-01-11T06:27:53;22.35;;;13.00;;
70126;SDS011;57491;42.694;23.314;2024-01-11T06:30:21;20.00;;;11.48;;
70126;SDS011;57491;42.694;23.314;2024-01-11T06:32:48;21.38;;;10.52;;
70126;SDS011;57491;42.694;23.314;2024-01-11T06:35:17;22.70;;;11.63;;
70126;SDS011;57491;42.694;23.314;2024-01-11T06:37:44;33.70;;;14.82;;
70126;SDS011;57491;42.694;23.314;2024-01-11T06:40:11;39.92;;;18.42;;
70126;SDS011;57491;42.694;23.314;2024-01-11T06:42:40;36.30;;;17.67;;
70126;SDS011;57491;42.694;23.314;2024-01-11T06:45:08;39.28;;;20.38;;
70126;SDS011;57491;42.694;23.314;2024-01-11T06:47:36;32.78;;;18.63;;
70126;SDS011;57491;42.694;23.314;2024-01-11T06:50:03;46.42;;;21.73;;
70126;SDS011;57491;42.694;23.314;2024-01-11T06:52:33;35.70;;;19.70;;
70126;SDS011;57491;42.694;23.314;2024-01-11T06:55:00;46.22;;;21.67;;
70126;SDS011;57491;42.694;23.314;2024-01-11T06:57:28;44.58;;;21.75;;
70126;SDS011;57491;42.694;23.314;2024-01-11T06:59:56;50.05;;;21.95;;
70126;SDS011;57491;42.694;23.314;2024-01-11T07:02:24;38.85;;;21.48;;
70126;SDS011;57491;42.694;23.314;2024-01-11T07:04:51;39.58;;;20.50;;
70126;SDS011;57491;42.694;23.314;2024-01-11T07:07:19;40.42;;;22.10;;
70126;SDS011;57491;42.694;23.314;2024-01-11T07:09:46;44.25;;;21.83;;
70126;SDS011;57491;42.694;23.314;2024-01-11T07:12:13;35.70;;;20.70;;
70126;SDS011;57491;42.694;23.314;2024-01-11T07:14:42;42.13;;;21.80;;
70126;SDS011;57491;42.694;23.314;2024-01-11T07:17:10;48.72;;;23.42;;
70126;SDS011;57491;42.694;23.314;2024-01-11T07:19:38;36.25;;;21.25;;
70126;SDS011;57491;42.694;23.314;2024-01-11T07:22:05;41.43;;;21.50;;
70126;SDS011;57491;42.694;23.314;2024-01-11T07:24:32;43.00;;;24.00;;
70126;SDS011;57491;42.694;23.314;2024-01-11T07:27:03;39.95;;;21.55;;
70126;SDS011;57491;42.694;23.314;2024-01-11T07:29:30;35.97;;;20.17;;
70126;SDS011;57491;42.694;23.314;2024-01-11T07:31:58;36.33;;;20.20;;
70126;SDS011;57491;42.694;23.314;2024-01-11T07:34:27;31.77;;;18.48;;
70126;SDS011;57491;42.694;23.314;2024-01-11T07:36:54;35.45;;;18.90;;
70126;SDS011;57491;42.694;23.314;2024-01-11T07:39:23;35.95;;;18.60;;
70126;SDS011;57491;42.694;23.314;2024-01-11T07:41:50;31.15;;;18.52;;
70126;SDS011;57491;42.694;23.314;2024-01-11T07:44:18;35.92;;;20.50;;
70126;SDS011;57491;42.694;23.314;2024-01-11T07:46:46;40.00;;;20.27;;
70126;SDS011;57491;42.694;23.314;2024-01-11T07:49:14;35.10;;;18.85;;
70126;SDS011;57491;42.694;23.314;2024-01-11T07:51:43;37.95;;;18.88;;
70126;SDS011;57491;42.694;23.314;2024-01-11T07:54:10;32.70;;;19.67;;
70126;SDS011;57491;42.694;23.314;2024-01-11T07:56:38;35.63;;;21.95;;
70126;SDS011;57491;42.694;23.314;2024-01-11T07:59:05;42.55;;;20.15;;
70126;SDS011;57491;42.694;23.314;2024-01-11T08:01:33;40.35;;;20.42;;
70126;SDS011;57491;42.694;23.314;2024-01-11T08:04:04;36.85;;;19.00;;
70126;SDS011;57491;42.694;23.314;2024-01-11T08:06:31;36.33;;;19.95;;
70126;SDS011;57491;42.694;23.314;2024-01-11T08:09:00;36.70;;;19.95;;
70126;SDS011;57491;42.694;23.314;2024-01-11T08:11:30;36.97;;;21.02;;
70126;SDS011;57491;42.694;23.314;2024-01-11T08:13:58;39.42;;;23.23;;
70126;SDS011;57491;42.694;23.314;2024-01-11T08:16:25;44.67;;;25.00;;
70126;SDS011;57491;42.694;23.314;2024-01-11T08:21:21;44.53;;;25.83;;
70126;SDS011;57491;42.694;23.314;2024-01-11T08:23:48;51.15;;;27.23;;
70126;SDS011;57491;42.694;23.314;2024-01-11T08:26:17;44.08;;;28.83;;
70126;SDS011;57491;42.694;23.314;2024-01-11T08:28:45;55.65;;;28.42;;
70126;SDS011;57491;42.694;23.314;2024-01-11T08:31:12;52.78;;;27.67;;
70126;SDS011;57491;42.694;23.314;2024-01-11T08:33:39;56.13;;;32.10;;
70126;SDS011;57491;42.694;23.314;2024-01-11T08:36:07;48.88;;;29.45;;
70126;SDS011;57491;42.694;23.314;2024-01-11T08:38:40;53.08;;;30.60;;
70126;SDS011;57491;42.694;23.314;2024-01-11T08:41:08;49.65;;;29.40;;
70126;SDS011;57491;42.694;23.314;2024-01-11T08:43:39;53.28;;;31.17;;
70126;SDS011;57491;42.694;23.314;2024-01-11T08:46:07;58.85;;;33.35;;
70126;SDS011;57491;42.694;23.314;2024-01-11T08:48:34;59.22;;;34.53;;
70126;SDS011;57491;42.694;23.314;2024-01-11T08:51:01;60.37;;;35.50;;
70126;SDS011;57491;42.694;23.314;2024-01-11T08:53:29;55.65;;;33.45;;
70126;SDS011;57491;42.694;23.314;2024-01-11T08:55:56;54.75;;;33.90;;
70126;SDS011;57491;42.694;23.314;2024-01-11T08:58:23;58.60;;;33.47;;
70126;SDS011;57491;42.694;23.314;2024-01-11T09:00:52;55.25;;;36.25;;
70126;SDS011;57491;42.694;23.314;2024-01-11T09:03:19;50.90;;;30.77;;
70126;SDS011;57491;42.694;23.314;2024-01-11T09:05:47;56.63;;;32.15;;
70126;SDS011;57491;42.694;23.314;2024-01-11T09:08:14;60.88;;;32.97;;
70126;SDS011;57491;42.694;23.314;2024-01-11T09:10:42;50.08;;;29.20;;
70126;SDS011;57491;42.694;23.314;2024-01-11T09:13:09;56.72;;;30.48;;
70126;SDS011;57491;42.694;23.314;2024-01-11T09:15:37;49.40;;;29.40;;
70126;SDS011;57491;42.694;23.314;2024-01-11T09:18:05;54.08;;;27.70;;
70126;SDS011;57491;42.694;23.314;2024-01-11T09:20:33;39.58;;;25.48;;
70126;SDS011;57491;42.694;23.314;2024-01-11T09:23:01;42.15;;;26.10;;
70126;SDS011;57491;42.694;23.314;2024-01-11T09:25:29;38.55;;;26.30;;
70126;SDS011;57491;42.694;23.314;2024-01-11T09:27:57;49.20;;;27.35;;
70126;SDS011;57491;42.694;23.314;2024-01-11T09:30:24;42.75;;;26.02;;
70126;SDS011;57491;42.694;23.314;2024-01-11T09:32:51;40.00;;;24.10;;
70126;SDS011;57491;42.694;23.314;2024-01-11T09:35:20;39.58;;;25.00;;
70126;SDS011;57491;42.694;23.314;2024-01-11T09:37:48;43.00;;;25.38;;
70126;SDS011;57491;42.694;23.314;2024-01-11T09:40:16;51.35;;;27.13;;
70126;SDS011;57491;42.694;23.314;2024-01-11T09:42:44;44.50;;;25.50;;
70126;SDS011;57491;42.694;23.314;2024-01-11T09:45:12;45.42;;;25.90;;
70126;SDS011;57491;42.694;23.314;2024-01-11T09:47:41;46.88;;;26.33;;
70126;SDS011;57491;42.694;23.314;2024-01-11T09:50:17;44.40;;;25.48;;
70126;SDS011;57491;42.694;23.314;2024-01-11T09:52:46;43.15;;;26.25;;
70126;SDS011;57491;42.694;23.314;2024-01-11T09:55:15;41.17;;;24.35;;
70126;SDS011;57491;42.694;23.314;2024-01-11T10:00:13;36.42;;;23.55;;
70126;SDS011;57491;42.694;23.314;2024-01-11T10:02:44;37.70;;;24.80;;
70126;SDS011;57491;42.694;23.314;2024-01-11T10:05:12;39.70;;;25.42;;
70126;SDS011;57491;42.694;23.314;2024-01-11T10:07:40;40.53;;;24.90;;
70126;SDS011;57491;42.694;23.314;2024-01-11T10:10:09;43.80;;;24.83;;
70126;SDS011;57491;42.694;23.314;2024-01-11T10:12:37;37.03;;;23.92;;
70126;SDS011;57491;42.694;23.314;2024-01-11T10:17:32;42.22;;;26.67;;
70126;SDS011;57491;42.694;23.314;2024-01-11T10:19:59;37.10;;;25.02;;
70126;SDS011;57491;42.694;23.314;2024-01-11T10:22:29;35.50;;;23.70;;
70126;SDS011;57491;42.694;23.314;2024-01-11T10:28:07;35.10;;;24.38;;
70126;SDS011;57491;42.694;23.314;2024-01-11T10:30:34;31.95;;;21.85;;
70126;SDS011;57491;42.694;23.314;2024-01-11T10:33:02;37.47;;;23.83;;
70126;SDS011;57491;42.694;23.314;2024-01-11T10:35:30;39.90;;;26.35;;
70126;SDS011;57491;42.694;23.314;2024-01-11T10:37:58;40.75;;;26.98;;
70126;SDS011;57491;42.694;23.314;2024-01-11T10:40:27;37.38;;;24.80;;
70126;SDS011;57491;42.694;23.314;2024-01-11T10:42:55;36.17;;;26.48;;
70126;SDS011;57491;42.694;23.314;2024-01-11T10:45:55;37.55;;;24.50;;
70126;SDS011;57491;42.694;23.314;2024-01-11T10:48:28;36.33;;;23.45;;
70126;SDS011;57491;42.694;23.314;2024-01-11T10:50:59;35.50;;;23.95;;
70126;SDS011;57491;42.694;23.314;2024-01-11T10:53:31;31.13;;;22.17;;
70126;SDS011;57491;42.694;23.314;2024-01-11T10:56:09;33.40;;;22.52;;
70126;SDS011;57491;42.694;23.314;2024-01-11T10:58:39;35.03;;;23.58;;
70126;SDS011;57491;42.694;23.314;2024-01-11T11:01:07;30.45;;;21.30;;
70126;SDS011;57491;42.694;23.314;2024-01-11T11:03:36;28.00;;;20.83;;
70126;SDS011;57491;42.694;23.314;2024-01-11T11:06:05;30.80;;;21.23;;
70126;SDS011;57491;42.694;23.314;2024-01-11T11:08:33;32.28;;;20.55;;
70126;SDS011;57491;42.694;23.314;2024-01-11T11:11:03;28.77;;;18.80;;
70126;SDS011;57491;42.694;23.314;2024-01-11T11:13:32;21.75;;;17.05;;
70126;SDS011;57491;42.694;23.314;2024-01-11T11:16:02;22.10;;;15.80;;
70126;SDS011;57491;42.694;23.314;2024-01-11T11:18:30;25.63;;;16.60;;
70126;SDS011;57491;42.694;23.314;2024-01-11T11:21:00;22.13;;;16.63;;
70126;SDS011;57491;42.694;23.314;2024-01-11T11:25:55;27.80;;;18.50;;
70126;SDS011;57491;42.694;23.314;2024-01-11T11:28:23;28.13;;;19.13;;
70126;SDS011;57491;42.694;23.314;2024-01-11T11:30:58;31.58;;;18.67;;
70126;SDS011;57491;42.694;23.314;2024-01-11T11:33:38;25.98;;;18.33;;
70126;SDS011;57491;42.694;23.314;2024-01-11T11:36:28;25.35;;;17.80;;
70126;SDS011;57491;42.694;23.314;2024-01-11T11:38:56;28.45;;;17.25;;
70126;SDS011;57491;42.694;23.314;2024-01-11T11:41:26;23.25;;;16.05;;
70126;SDS011;57491;42.694;23.314;2024-01-11T11:46:20;22.17;;;15.35;;
70126;SDS011;57491;42.694;23.314;2024-01-11T11:51:19;25.92;;;16.98;;
70126;SDS011;57491;42.694;23.314;2024-01-11T11:53:46;32.67;;;18.77;;
70126;SDS011;57491;42.694;23.314;2024-01-11T11:56:16;31.83;;;20.15;;
70126;SDS011;57491;42.694;23.314;2024-01-11T11:58:44;26.67;;;17.90;;
70126;SDS011;57491;42.694;23.314;2024-01-11T12:01:13;25.80;;;16.75;;
70126;SDS011;57491;42.694;23.314;2024-01-11T12:03:41;23.02;;;16.42;;
70126;SDS011;57491;42.694;23.314;2024-01-11T12:06:15;24.05;;;16.15;;
70126;SDS011;57491;42.694;23.314;2024-01-11T12:08:44;16.63;;;12.88;;
70126;SDS011;57491;42.694;23.314;2024-01-11T12:11:16;18.63;;;13.05;;
70126;SDS011;57491;42.694;23.314;2024-01-11T12:13:46;16.70;;;13.25;;
70126;SDS011;57491;42.694;23.314;2024-01-11T12:16:14;19.13;;;13.40;;
70126;SDS011;57491;42.694;23.314;2024-01-11T12:18:41;17.23;;;12.60;;
70126;SDS011;57491;42.694;23.314;2024-01-11T12:21:08;15.70;;;11.65;;
70126;SDS011;57491;42.694;23.314;2024-01-11T12:26:06;16.63;;;13.75;;
70126;SDS011;57491;42.694;23.314;2024-01-11T12:28:38;12.27;;;10.43;;
70126;SDS011;57491;42.694;23.314;2024-01-11T12:31:07;16.00;;;12.00;;
70126;SDS011;57491;42.694;23.314;2024-01-11T12:36:04;17.33;;;10.05;;
70126;SDS011;57491;42.694;23.314;2024-01-11T12:38:33;11.32;;;7.75;;
70126;SDS011;57491;42.694;23.314;2024-01-11T12:41:02;7.55;;;5.68;;
70126;SDS011;57491;42.694;23.314;2024-01-11T12:43:30;7.70;;;5.40;;
70126;SDS011;57491;42.694;23.314;2024-01-11T12:46:05;6.68;;;5.70;;
70126;SDS011;57491;42.694;23.314;2024-01-11T12:48:33;8.68;;;5.80;;
70126;SDS011;57491;42.694;23.314;2024-01-11T12:51:01;9.38;;;6.05;;
70126;SDS011;57491;42.694;23.314;2024-01-11T12:53:44;8.05;;;5.85;;
70126;SDS011;57491;42.694;23.314;2024-01-11T12:56:18;10.98;;;6.53;;
70126;SDS011;57491;42.694;23.314;2024-01-11T13:05:27;8.38;;;6.13;;
70126;SDS011;57491;42.694;23.314;2024-01-11T13:11:53;8.82;;;5.32;;
70126;SDS011;57491;42.694;23.314;2024-01-11T13:14:25;6.15;;;4.80;;
70126;SDS011;57491;42.694;23.314;2024-01-11T13:17:15;8.93;;;5.63;;
70126;SDS011;57491;42.694;23.314;2024-01-11T13:20:13;6.55;;;5.10;;
70126;SDS011;57491;42.694;23.314;2024-01-11T13:25:49;7.15;;;5.60;;
70126;SDS011;57491;42.694;23.314;2024-01-11T13:28:18;6.95;;;5.65;;
70126;SDS011;57491;42.694;23.314;2024-01-11T13:30:46;5.60;;;4.70;;
70126;SDS011;57491;42.694;23.314;2024-01-11T13:33:14;6.70;;;4.63;;
70126;SDS011;57491;42.694;23.314;2024-01-11T13:35:42;7.20;;;4.40;;
70126;SDS011;57491;42.694;23.314;2024-01-11T13:38:10;10.32;;;5.28;;
70126;SDS011;57491;42.694;23.314;2024-01-11T13:40:37;7.70;;;5.07;;
70126;SDS011;57491;42.694;23.314;2024-01-11T13:45:33;6.55;;;5.10;;
70126;SDS011;57491;42.694;23.314;2024-01-11T13:48:02;7.78;;;5.45;;
70126;SDS011;57491;42.694;23.314;2024-01-11T13:50:30;6.45;;;5.00;;
70126;SDS011;57491;42.694;23.314;2024-01-11T13:52:58;9.07;;;5.45;;
70126;SDS011;57491;42.694;23.314;2024-01-11T13:57:52;9.95;;;6.30;;
70126;SDS011;57491;42.694;23.314;2024-01-11T14:02:48;9.23;;;5.72;;
70126;SDS011;57491;42.694;23.314;2024-01-11T14:05:16;12.07;;;5.63;;
70126;SDS011;57491;42.694;23.314;2024-01-11T14:12:39;7.20;;;4.53;;
70126;SDS011;57491;42.694;23.314;2024-01-11T14:15:07;9.13;;;5.28;;
70126;SDS011;57491;42.694;23.314;2024-01-11T14:17:38;12.40;;;5.28;;
70126;SDS011;57491;42.694;23.314;2024-01-11T14:20:08;9.68;;;5.90;;
70126;SDS011;57491;42.694;23.314;2024-01-11T14:22:39;5.60;;;4.80;;
70126;SDS011;57491;42.694;23.314;2024-01-11T14:25:08;6.13;;;4.75;;
70126;SDS011;57491;42.694;23.314;2024-01-11T14:27:39;9.02;;;5.50;;
70126;SDS011;57491;42.694;23.314;2024-01-11T14:30:10;7.75;;;5.30;;
70126;SDS011;57491;42.694;23.314;2024-01-11T14:32:38;7.28;;;4.93;;
70126;SDS011;57491;42.694;23.314;2024-01-11T14:35:08;7.28;;;5.30;;
70126;SDS011;57491;42.694;23.314;2024-01-11T14:37:36;8.57;;;4.95;;
70126;SDS011;57491;42.694;23.314;2024-01-11T14:40:05;10.10;;;5.93;;
70126;SDS011;57491;42.694;23.314;2024-01-11T14:42:36;10.23;;;6.13;;
70126;SDS011;57491;42.694;23.314;2024-01-11T14:47:32;15.05;;;6.72;;
70126;SDS011;57491;42.694;23.314;2024-01-11T14:50:28;15.85;;;8.07;;
70126;SDS011;57491;42.694;23.314;2024-01-11T14:53:23;9.80;;;5.90;;
70126;SDS011;57491;42.694;23.314;2024-01-11T14:55:51;12.07;;;6.65;;
70126;SDS011;57491;42.694;23.314;2024-01-11T14:58:18;13.27;;;6.57;;
70126;SDS011;57491;42.694;23.314;2024-01-11T15:00:46;14.55;;;7.53;;
70126;SDS011;57491;42.694;23.314;2024-01-11T15:03:14;13.90;;;7.82;;
70126;SDS011;57491;42.694;23.314;2024-01-11T15:05:42;16.70;;;7.30;;
70126;SDS011;57491;42.694;23.314;2024-01-11T15:08:09;13.95;;;7.18;;
70126;SDS011;57491;42.694;23.314;2024-01-11T15:10:37;11.02;;;6.78;;
70126;SDS011;57491;42.694;23.314;2024-01-11T15:13:04;12.02;;;7.38;;
70126;SDS011;57491;42.694;23.314;2024-01-11T15:15:31;16.00;;;7.90;;
70126;SDS011;57491;42.694;23.314;2024-01-11T15:17:59;13.20;;;8.02;;
70126;SDS011;57491;42.694;23.314;2024-01-11T15:20:26;19.87;;;9.23;;
70126;SDS011;57491;42.694;23.314;2024-01-11T15:22:54;15.93;;;7.97;;
70126;SDS011;57491;42.694;23.314;2024-01-11T15:25:22;13.48;;;8.50;;
70126;SDS011;57491;42.694;23.314;2024-01-11T15:27:49;14.70;;;7.38;;
70126;SDS011;57491;42.694;23.314;2024-01-11T15:30:17;17.05;;;7.93;;